Notice: Undefined index: language in /home/spanairv/public_html/vam/index.php on line 25
Spanair Virtual

 INFORMACIÓN METAR y TAF
METAR FOR LEBL
ADDS - METARS form results

(0030 UTC 25 April 2018)
Data provider http://aviationweather.gov/adds/metars/
 
METAR text: LEBL 250000Z 32005KT CAVOK 16/12 Q1017 NOSIG
Conditions at: LEBL (BARCELONA AIRPOR, ES) observed 0000 UTC 25 April 2018
Temperature: 16.0°C (61°F)
Dewpoint: 12.0°C (54°F) [RH = 77%]
Pressure (altimeter): 30.03 inches Hg (1017.0 mb)
Winds: from the NW (320 degrees) at 6 MPH (5 knots; 2.6 m/s)
Visibility: 6 or more miles (10+ km)
Ceiling: ceiling and visibility are OK
Clouds: unknown
Weather: no significant weather observed at this time

Forecast for: LEBL (BARCELONA AIRPOR, ES)
Text: TAF LEBL 242300Z 2500/2524 33006KT 9999 FEW040 TX22/2512Z TN15/2506Z
Forecast period: 0000 to 0800 UTC 25 April 2018
Forecast type: FROM: standard forecast or significant change
Winds: from the NNW (330 degrees) at 7 MPH (6 knots; 3.1 m/s)
Visibility: 6 or more miles (10+ km)
Clouds: few clouds at 4000 feet AGL
Weather: no significant weather forecast for this period
Forecast for: LEBL (BARCELONA AIRPOR, ES)
Text: TAF LEBL 242300Z 2500/2524 33006KT 9999 FEW040 TX22/2512Z TN15/2506Z
Forecast period: 0000 to 0800 UTC 25 April 2018
Forecast type: FROM: standard forecast or significant change
Winds: from the NNW (330 degrees) at 7 MPH (6 knots; 3.1 m/s)
Visibility: 6 or more miles (10+ km)
Clouds: few clouds at 4000 feet AGL
Weather: no significant weather forecast for this period
Forecast for: LEBL (BARCELONA AIRPOR, ES)
Text: TAF LEBL 242300Z 2500/2524 33006KT 9999 FEW040 TX22/2512Z TN15/2506Z
Forecast period: 0800 to 1800 UTC 25 April 2018
Forecast type: BECOMING: Conditions expected to become as follows by 1000 UTC 25 April 2018
Winds: from the E (100 degrees) at 8 MPH (7 knots; 3.6 m/s)
Visibility: 6 or more miles (10+ km)
Clouds: few clouds at 4000 feet AGL
Weather: no significant weather forecast for this period
Forecast for: LEBL (BARCELONA AIRPOR, ES)
Text: TAF LEBL 242300Z 2500/2524 33006KT 9999 FEW040 TX22/2512Z TN15/2506Z
Forecast period: 0800 to 1800 UTC 25 April 2018
Forecast type: BECOMING: Conditions expected to become as follows by 1000 UTC 25 April 2018
Winds: from the E (100 degrees) at 8 MPH (7 knots; 3.6 m/s)
Visibility: 6 or more miles (10+ km)
Clouds: few clouds at 4000 feet AGL
Weather: no significant weather forecast for this period
Forecast for: LEBL (BARCELONA AIRPOR, ES)
Text: TAF LEBL 242300Z 2500/2524 33006KT 9999 FEW040 TX22/2512Z TN15/2506Z
Forecast period: 1800 UTC 25 April 2018 to 0000 UTC 26 April 2018
Forecast type: BECOMING: Conditions expected to become as follows by 2000 UTC 25 April 2018
Winds: variable direction winds at 3 MPH (3 knots; 1.6 m/s)
Visibility: 6 or more miles (10+ km)
Clouds: few clouds at 4000 feet AGL
Weather: no significant weather forecast for this period
Forecast for: LEBL (BARCELONA AIRPOR, ES)
Text: TAF LEBL 242300Z 2500/2524 33006KT 9999 FEW040 TX22/2512Z TN15/2506Z
Forecast period: 1800 UTC 25 April 2018 to 0000 UTC 26 April 2018
Forecast type: BECOMING: Conditions expected to become as follows by 2000 UTC 25 April 2018
Winds: variable direction winds at 3 MPH (3 knots; 1.6 m/s)
Visibility: 6 or more miles (10+ km)
Clouds: few clouds at 4000 feet AGL
Weather: no significant weather forecast for this period

 MAPA DE AEROPUERTO

 INFORMACIÓN DE PISTA
Pista 02 Longitud 8333 ft Ancho 148 ft
Elevación 7 ft Umbral desplazado 131 ft Rumbo de pista 19
Pista 20 Longitud 8333 ft Ancho 148 ft
Elevación 12 ft Umbral desplazado 0 ft Rumbo de pista 199
Pista 07L Longitud 11654 ft Ancho 148 ft
Elevación 8 ft Umbral desplazado 295 ft Rumbo de pista 66
Pista 25R Longitud 11654 ft Ancho 148 ft
Elevación 10 ft Umbral desplazado 0 ft Rumbo de pista 246
Pista 07R Longitud 8727 ft Ancho 197 ft
Elevación 8 ft Umbral desplazado 0 ft Rumbo de pista 66
Pista 25L Longitud 8727 ft Ancho 197 ft
Elevación 8 ft Umbral desplazado 0 ft Rumbo de pista 246

 FRECUANCIAS DEL AEROPUERTO
Tipo APP Nombre APP Frecuencia 119.1 MHZ
Tipo ATIS Nombre ATIS Frecuencia 118.65 MHZ
Tipo CLD Nombre CLNC DEL Frecuencia 121.8 MHZ
Tipo GND Nombre GND Frecuencia 121.65 MHZ
Tipo TWR Nombre TWR Frecuencia 118.1 MHZ

 RADIO AYUDAS DEL AEROPUERTO
Tipo VOR-DME Nombre Barcelona Frecuencia 116700 KHZ
Tipo VOR-DME Nombre El Prat Frecuencia 114300 KHZ
Tipo VOR-DME Nombre Sabadell Frecuencia 112000 KHZ
Tipo NDB Nombre Villanueva Frecuencia 380 KHZ





VAM [v2.6.2]

Normativa | Spanair Virtual © 2017 | Customized by JZ © 2017 for Spanair Virtual